sensor_id;sensor_type;location;lat;lon;timestamp;temperature;humidity
27413;DHT22;14871;52.702;5.230;2023-08-24T00:01:28;21.60;99.90
27413;DHT22;14871;52.702;5.230;2023-08-24T00:03:54;21.60;99.90
27413;DHT22;14871;52.702;5.230;2023-08-24T00:06:20;21.60;99.90
27413;DHT22;14871;52.702;5.230;2023-08-24T00:08:48;21.60;99.90
27413;DHT22;14871;52.702;5.230;2023-08-24T00:11:13;21.60;99.90
27413;DHT22;14871;52.702;5.230;2023-08-24T00:13:44;21.60;99.90
27413;DHT22;14871;52.702;5.230;2023-08-24T00:16:17;21.60;99.90
27413;DHT22;14871;52.702;5.230;2023-08-24T00:18:43;21.60;99.90
27413;DHT22;14871;52.702;5.230;2023-08-24T00:21:10;21.70;99.90
27413;DHT22;14871;52.702;5.230;2023-08-24T00:23:36;21.70;99.90
27413;DHT22;14871;52.702;5.230;2023-08-24T00:26:01;21.70;99.90
27413;DHT22;14871;52.702;5.230;2023-08-24T00:28:27;21.80;99.90
27413;DHT22;14871;52.702;5.230;2023-08-24T00:30:53;21.80;99.90
27413;DHT22;14871;52.702;5.230;2023-08-24T00:33:18;21.80;99.90
27413;DHT22;14871;52.702;5.230;2023-08-24T00:35:44;21.80;99.90
27413;DHT22;14871;52.702;5.230;2023-08-24T00:38:10;21.80;99.90
27413;DHT22;14871;52.702;5.230;2023-08-24T00:40:36;21.90;99.90
27413;DHT22;14871;52.702;5.230;2023-08-24T00:43:02;21.90;99.90
27413;DHT22;14871;52.702;5.230;2023-08-24T00:45:27;21.90;99.90
27413;DHT22;14871;52.702;5.230;2023-08-24T00:47:54;21.80;99.90
27413;DHT22;14871;52.702;5.230;2023-08-24T00:50:19;21.90;99.90
27413;DHT22;14871;52.702;5.230;2023-08-24T00:52:47;21.90;99.90
27413;DHT22;14871;52.702;5.230;2023-08-24T00:55:13;21.80;99.90
27413;DHT22;14871;52.702;5.230;2023-08-24T00:57:40;21.80;99.90
27413;DHT22;14871;52.702;5.230;2023-08-24T01:00:07;21.80;99.90
27413;DHT22;14871;52.702;5.230;2023-08-24T01:02:39;22.00;99.90
27413;DHT22;14871;52.702;5.230;2023-08-24T01:05:05;21.90;99.90
27413;DHT22;14871;52.702;5.230;2023-08-24T01:07:33;21.80;99.90
27413;DHT22;14871;52.702;5.230;2023-08-24T01:10:00;21.80;99.90
27413;DHT22;14871;52.702;5.230;2023-08-24T01:12:42;21.80;99.90
27413;DHT22;14871;52.702;5.230;2023-08-24T01:15:26;21.90;99.90
27413;DHT22;14871;52.702;5.230;2023-08-24T01:17:56;21.90;99.90
27413;DHT22;14871;52.702;5.230;2023-08-24T01:20:24;21.80;99.90
27413;DHT22;14871;52.702;5.230;2023-08-24T01:23:14;21.80;99.90
27413;DHT22;14871;52.702;5.230;2023-08-24T01:25:52;21.80;99.90
27413;DHT22;14871;52.702;5.230;2023-08-24T01:28:20;21.80;99.90
27413;DHT22;14871;52.702;5.230;2023-08-24T01:30:47;21.60;99.90
27413;DHT22;14871;52.702;5.230;2023-08-24T01:33:13;21.60;99.90
27413;DHT22;14871;52.702;5.230;2023-08-24T01:35:39;21.60;99.90
27413;DHT22;14871;52.702;5.230;2023-08-24T01:38:05;21.40;99.90
27413;DHT22;14871;52.702;5.230;2023-08-24T01:40:44;21.50;99.90
27413;DHT22;14871;52.702;5.230;2023-08-24T01:43:13;21.60;99.90
27413;DHT22;14871;52.702;5.230;2023-08-24T01:45:41;21.50;99.90
27413;DHT22;14871;52.702;5.230;2023-08-24T01:48:09;21.50;99.90
27413;DHT22;14871;52.702;5.230;2023-08-24T01:50:35;21.50;99.90
27413;DHT22;14871;52.702;5.230;2023-08-24T01:53:02;21.50;99.90
27413;DHT22;14871;52.702;5.230;2023-08-24T01:55:28;21.40;99.90
27413;DHT22;14871;52.702;5.230;2023-08-24T01:57:55;21.40;99.90
27413;DHT22;14871;52.702;5.230;2023-08-24T02:00:22;21.50;99.90
27413;DHT22;14871;52.702;5.230;2023-08-24T02:02:47;21.40;99.90
27413;DHT22;14871;52.702;5.230;2023-08-24T02:05:13;21.40;99.90
27413;DHT22;14871;52.702;5.230;2023-08-24T02:07:39;21.40;99.90
27413;DHT22;14871;52.702;5.230;2023-08-24T02:10:06;21.40;99.90
27413;DHT22;14871;52.702;5.230;2023-08-24T02:12:31;21.50;99.90
27413;DHT22;14871;52.702;5.230;2023-08-24T02:14:57;21.50;99.90
27413;DHT22;14871;52.702;5.230;2023-08-24T02:17:23;21.40;99.90
27413;DHT22;14871;52.702;5.230;2023-08-24T02:19:49;21.40;99.90
27413;DHT22;14871;52.702;5.230;2023-08-24T02:22:15;21.40;99.90
27413;DHT22;14871;52.702;5.230;2023-08-24T02:24:41;21.50;99.90
27413;DHT22;14871;52.702;5.230;2023-08-24T02:27:06;21.40;99.90
27413;DHT22;14871;52.702;5.230;2023-08-24T02:29:32;21.40;99.90
27413;DHT22;14871;52.702;5.230;2023-08-24T02:31:58;21.40;99.90
27413;DHT22;14871;52.702;5.230;2023-08-24T02:34:23;21.40;99.90
27413;DHT22;14871;52.702;5.230;2023-08-24T02:36:49;21.40;99.90
27413;DHT22;14871;52.702;5.230;2023-08-24T02:39:14;21.40;99.90
27413;DHT22;14871;52.702;5.230;2023-08-24T02:41:40;21.40;99.90
27413;DHT22;14871;52.702;5.230;2023-08-24T02:44:05;21.30;99.90
27413;DHT22;14871;52.702;5.230;2023-08-24T02:46:31;21.40;99.90
27413;DHT22;14871;52.702;5.230;2023-08-24T02:48:57;21.40;99.90
27413;DHT22;14871;52.702;5.230;2023-08-24T02:51:23;21.30;99.90
27413;DHT22;14871;52.702;5.230;2023-08-24T02:53:49;21.40;99.90
27413;DHT22;14871;52.702;5.230;2023-08-24T02:56:16;21.40;99.90
27413;DHT22;14871;52.702;5.230;2023-08-24T02:58:41;21.40;99.90
27413;DHT22;14871;52.702;5.230;2023-08-24T03:01:07;21.40;99.90
27413;DHT22;14871;52.702;5.230;2023-08-24T03:03:36;21.40;99.90
27413;DHT22;14871;52.702;5.230;2023-08-24T03:06:04;21.40;99.90
27413;DHT22;14871;52.702;5.230;2023-08-24T03:08:31;21.40;99.90
27413;DHT22;14871;52.702;5.230;2023-08-24T03:10:57;21.40;99.90
27413;DHT22;14871;52.702;5.230;2023-08-24T03:13:23;21.30;99.90
27413;DHT22;14871;52.702;5.230;2023-08-24T03:15:49;21.30;99.90
27413;DHT22;14871;52.702;5.230;2023-08-24T03:18:16;21.40;99.90
27413;DHT22;14871;52.702;5.230;2023-08-24T03:20:42;21.30;99.90
27413;DHT22;14871;52.702;5.230;2023-08-24T03:23:08;21.30;99.90
27413;DHT22;14871;52.702;5.230;2023-08-24T03:25:38;21.30;99.90
27413;DHT22;14871;52.702;5.230;2023-08-24T03:28:04;21.30;99.90
27413;DHT22;14871;52.702;5.230;2023-08-24T03:30:30;21.30;99.90
27413;DHT22;14871;52.702;5.230;2023-08-24T03:32:55;21.20;99.90
27413;DHT22;14871;52.702;5.230;2023-08-24T03:35:21;21.20;99.90
27413;DHT22;14871;52.702;5.230;2023-08-24T03:37:47;21.20;99.90
27413;DHT22;14871;52.702;5.230;2023-08-24T03:40:13;21.10;99.90
27413;DHT22;14871;52.702;5.230;2023-08-24T03:42:38;21.20;99.90
27413;DHT22;14871;52.702;5.230;2023-08-24T03:45:05;21.20;99.90
27413;DHT22;14871;52.702;5.230;2023-08-24T03:47:31;21.20;99.90
27413;DHT22;14871;52.702;5.230;2023-08-24T03:49:56;21.10;99.90
27413;DHT22;14871;52.702;5.230;2023-08-24T03:52:22;21.20;99.90
27413;DHT22;14871;52.702;5.230;2023-08-24T03:54:47;21.10;99.90
27413;DHT22;14871;52.702;5.230;2023-08-24T03:57:14;21.10;99.90
27413;DHT22;14871;52.702;5.230;2023-08-24T03:59:40;21.00;99.90
27413;DHT22;14871;52.702;5.230;2023-08-24T04:02:06;21.10;99.90
27413;DHT22;14871;52.702;5.230;2023-08-24T04:04:32;21.10;99.90
27413;DHT22;14871;52.702;5.230;2023-08-24T04:06:57;21.00;99.90
27413;DHT22;14871;52.702;5.230;2023-08-24T04:09:23;21.00;99.90
27413;DHT22;14871;52.702;5.230;2023-08-24T04:11:49;21.00;99.90
27413;DHT22;14871;52.702;5.230;2023-08-24T04:14:14;21.00;99.90
27413;DHT22;14871;52.702;5.230;2023-08-24T04:16:40;20.90;99.90
27413;DHT22;14871;52.702;5.230;2023-08-24T04:19:07;20.90;99.90
27413;DHT22;14871;52.702;5.230;2023-08-24T04:21:33;20.90;99.90
27413;DHT22;14871;52.702;5.230;2023-08-24T04:23:59;20.90;99.90
27413;DHT22;14871;52.702;5.230;2023-08-24T04:26:24;20.90;99.90
27413;DHT22;14871;52.702;5.230;2023-08-24T04:28:50;21.00;99.90
27413;DHT22;14871;52.702;5.230;2023-08-24T04:31:15;20.90;99.90
27413;DHT22;14871;52.702;5.230;2023-08-24T04:33:41;20.90;99.90
27413;DHT22;14871;52.702;5.230;2023-08-24T04:36:07;20.90;99.90
27413;DHT22;14871;52.702;5.230;2023-08-24T04:38:32;20.90;99.90
27413;DHT22;14871;52.702;5.230;2023-08-24T04:40:58;20.90;99.90
27413;DHT22;14871;52.702;5.230;2023-08-24T04:43:24;20.90;99.90
27413;DHT22;14871;52.702;5.230;2023-08-24T04:45:51;20.90;99.90
27413;DHT22;14871;52.702;5.230;2023-08-24T04:48:18;20.90;99.90
27413;DHT22;14871;52.702;5.230;2023-08-24T04:50:45;20.90;99.90
27413;DHT22;14871;52.702;5.230;2023-08-24T04:53:13;20.90;99.90
27413;DHT22;14871;52.702;5.230;2023-08-24T04:55:40;20.90;99.90
27413;DHT22;14871;52.702;5.230;2023-08-24T04:58:07;20.80;99.90
27413;DHT22;14871;52.702;5.230;2023-08-24T05:00:34;20.80;99.90
27413;DHT22;14871;52.702;5.230;2023-08-24T05:03:01;20.80;99.90
27413;DHT22;14871;52.702;5.230;2023-08-24T05:05:28;20.70;99.90
27413;DHT22;14871;52.702;5.230;2023-08-24T05:07:53;20.80;99.90
27413;DHT22;14871;52.702;5.230;2023-08-24T05:10:20;20.80;99.90
27413;DHT22;14871;52.702;5.230;2023-08-24T05:12:45;20.90;99.90
27413;DHT22;14871;52.702;5.230;2023-08-24T05:15:11;20.80;99.90
27413;DHT22;14871;52.702;5.230;2023-08-24T05:17:38;20.90;99.90
27413;DHT22;14871;52.702;5.230;2023-08-24T05:20:04;20.90;99.90
27413;DHT22;14871;52.702;5.230;2023-08-24T05:22:30;20.90;99.90
27413;DHT22;14871;52.702;5.230;2023-08-24T05:24:55;21.00;99.90
27413;DHT22;14871;52.702;5.230;2023-08-24T05:27:21;20.90;99.90
27413;DHT22;14871;52.702;5.230;2023-08-24T05:29:46;20.90;99.90
27413;DHT22;14871;52.702;5.230;2023-08-24T05:32:12;20.90;99.90
27413;DHT22;14871;52.702;5.230;2023-08-24T05:34:38;20.90;99.90
27413;DHT22;14871;52.702;5.230;2023-08-24T05:37:03;20.90;99.90
27413;DHT22;14871;52.702;5.230;2023-08-24T05:39:29;21.00;99.90
27413;DHT22;14871;52.702;5.230;2023-08-24T05:41:55;21.00;99.90
27413;DHT22;14871;52.702;5.230;2023-08-24T05:44:20;21.00;99.90
27413;DHT22;14871;52.702;5.230;2023-08-24T05:46:47;21.00;99.90
27413;DHT22;14871;52.702;5.230;2023-08-24T05:49:13;21.10;99.90
27413;DHT22;14871;52.702;5.230;2023-08-24T05:51:39;21.10;99.90
27413;DHT22;14871;52.702;5.230;2023-08-24T05:54:04;21.10;99.90
27413;DHT22;14871;52.702;5.230;2023-08-24T05:56:30;21.10;99.90
27413;DHT22;14871;52.702;5.230;2023-08-24T05:58:58;21.10;99.90
27413;DHT22;14871;52.702;5.230;2023-08-24T06:01:24;21.10;99.90
27413;DHT22;14871;52.702;5.230;2023-08-24T06:03:50;21.10;99.90
27413;DHT22;14871;52.702;5.230;2023-08-24T06:06:15;21.20;99.90
27413;DHT22;14871;52.702;5.230;2023-08-24T06:08:42;21.20;99.90
27413;DHT22;14871;52.702;5.230;2023-08-24T06:11:08;21.30;99.90
27413;DHT22;14871;52.702;5.230;2023-08-24T06:13:33;21.20;99.90
27413;DHT22;14871;52.702;5.230;2023-08-24T06:15:59;21.20;99.90
27413;DHT22;14871;52.702;5.230;2023-08-24T06:18:25;21.30;99.90
27413;DHT22;14871;52.702;5.230;2023-08-24T06:20:50;21.30;99.90
27413;DHT22;14871;52.702;5.230;2023-08-24T06:23:17;21.30;99.90
27413;DHT22;14871;52.702;5.230;2023-08-24T06:25:43;21.40;99.90
27413;DHT22;14871;52.702;5.230;2023-08-24T06:28:08;21.40;99.90
27413;DHT22;14871;52.702;5.230;2023-08-24T06:30:38;21.50;99.90
27413;DHT22;14871;52.702;5.230;2023-08-24T06:33:05;21.50;99.90
27413;DHT22;14871;52.702;5.230;2023-08-24T06:35:32;21.40;99.90
27413;DHT22;14871;52.702;5.230;2023-08-24T06:37:57;21.50;99.90
27413;DHT22;14871;52.702;5.230;2023-08-24T06:40:23;21.50;99.90
27413;DHT22;14871;52.702;5.230;2023-08-24T06:42:49;21.50;99.90
27413;DHT22;14871;52.702;5.230;2023-08-24T06:45:15;21.60;99.90
27413;DHT22;14871;52.702;5.230;2023-08-24T06:47:40;21.60;99.90
27413;DHT22;14871;52.702;5.230;2023-08-24T06:50:06;21.40;99.90
27413;DHT22;14871;52.702;5.230;2023-08-24T06:52:32;21.40;99.90
27413;DHT22;14871;52.702;5.230;2023-08-24T06:54:59;21.60;99.90
27413;DHT22;14871;52.702;5.230;2023-08-24T06:57:24;21.70;99.90
27413;DHT22;14871;52.702;5.230;2023-08-24T06:59:50;21.60;99.90
27413;DHT22;14871;52.702;5.230;2023-08-24T07:02:16;21.70;99.90
27413;DHT22;14871;52.702;5.230;2023-08-24T07:04:43;21.90;99.90
27413;DHT22;14871;52.702;5.230;2023-08-24T07:07:09;22.10;99.90
27413;DHT22;14871;52.702;5.230;2023-08-24T07:09:35;22.20;99.90
27413;DHT22;14871;52.702;5.230;2023-08-24T07:12:04;22.50;99.90
27413;DHT22;14871;52.702;5.230;2023-08-24T07:14:32;22.50;99.90
27413;DHT22;14871;52.702;5.230;2023-08-24T07:16:58;22.50;99.90
27413;DHT22;14871;52.702;5.230;2023-08-24T07:19:24;22.60;99.90
27413;DHT22;14871;52.702;5.230;2023-08-24T07:21:50;22.70;99.90
27413;DHT22;14871;52.702;5.230;2023-08-24T07:24:16;22.90;99.90
27413;DHT22;14871;52.702;5.230;2023-08-24T07:26:44;23.10;99.90
27413;DHT22;14871;52.702;5.230;2023-08-24T07:29:10;23.20;99.90
27413;DHT22;14871;52.702;5.230;2023-08-24T07:31:36;23.10;99.90
27413;DHT22;14871;52.702;5.230;2023-08-24T07:34:02;23.00;99.90
27413;DHT22;14871;52.702;5.230;2023-08-24T07:36:29;23.20;99.90
27413;DHT22;14871;52.702;5.230;2023-08-24T07:38:55;23.10;99.90
27413;DHT22;14871;52.702;5.230;2023-08-24T07:41:21;23.10;99.90
27413;DHT22;14871;52.702;5.230;2023-08-24T07:43:47;23.30;99.90
27413;DHT22;14871;52.702;5.230;2023-08-24T07:46:12;23.10;99.90
27413;DHT22;14871;52.702;5.230;2023-08-24T07:48:38;23.20;99.90
27413;DHT22;14871;52.702;5.230;2023-08-24T07:51:04;23.20;99.90
27413;DHT22;14871;52.702;5.230;2023-08-24T07:53:29;23.50;99.90
27413;DHT22;14871;52.702;5.230;2023-08-24T07:55:55;23.60;99.90
27413;DHT22;14871;52.702;5.230;2023-08-24T07:58:23;23.80;99.90
27413;DHT22;14871;52.702;5.230;2023-08-24T08:00:52;24.00;99.90
27413;DHT22;14871;52.702;5.230;2023-08-24T08:03:18;24.10;99.90
27413;DHT22;14871;52.702;5.230;2023-08-24T08:05:45;24.30;99.90
27413;DHT22;14871;52.702;5.230;2023-08-24T08:08:11;24.30;99.90
27413;DHT22;14871;52.702;5.230;2023-08-24T08:10:36;24.40;99.90
27413;DHT22;14871;52.702;5.230;2023-08-24T08:13:02;24.60;99.90
27413;DHT22;14871;52.702;5.230;2023-08-24T08:15:28;24.70;99.90
27413;DHT22;14871;52.702;5.230;2023-08-24T08:17:53;24.80;99.90
27413;DHT22;14871;52.702;5.230;2023-08-24T08:20:19;24.70;99.90
27413;DHT22;14871;52.702;5.230;2023-08-24T08:22:44;24.70;99.90
27413;DHT22;14871;52.702;5.230;2023-08-24T08:25:10;24.90;99.90
27413;DHT22;14871;52.702;5.230;2023-08-24T08:27:37;24.90;99.90
27413;DHT22;14871;52.702;5.230;2023-08-24T08:30:04;24.90;99.90
27413;DHT22;14871;52.702;5.230;2023-08-24T08:32:30;24.70;99.90
27413;DHT22;14871;52.702;5.230;2023-08-24T08:34:56;24.30;99.90
27413;DHT22;14871;52.702;5.230;2023-08-24T08:37:26;24.30;99.90
27413;DHT22;14871;52.702;5.230;2023-08-24T08:39:52;24.10;99.90
27413;DHT22;14871;52.702;5.230;2023-08-24T08:42:17;24.00;99.90
27413;DHT22;14871;52.702;5.230;2023-08-24T08:44:45;23.80;99.90
27413;DHT22;14871;52.702;5.230;2023-08-24T08:47:11;23.80;99.90
27413;DHT22;14871;52.702;5.230;2023-08-24T08:49:39;23.60;99.90
27413;DHT22;14871;52.702;5.230;2023-08-24T08:52:05;23.60;99.90
27413;DHT22;14871;52.702;5.230;2023-08-24T08:54:31;23.60;99.90
27413;DHT22;14871;52.702;5.230;2023-08-24T08:56:59;23.60;99.90
27413;DHT22;14871;52.702;5.230;2023-08-24T08:59:29;23.50;99.90
27413;DHT22;14871;52.702;5.230;2023-08-24T09:01:57;23.50;99.90
27413;DHT22;14871;52.702;5.230;2023-08-24T09:04:27;23.50;99.90
27413;DHT22;14871;52.702;5.230;2023-08-24T09:06:55;23.40;99.90
27413;DHT22;14871;52.702;5.230;2023-08-24T09:09:21;23.30;99.90
27413;DHT22;14871;52.702;5.230;2023-08-24T09:11:48;23.40;99.90
27413;DHT22;14871;52.702;5.230;2023-08-24T09:14:14;23.30;99.90
27413;DHT22;14871;52.702;5.230;2023-08-24T09:16:41;23.20;99.90
27413;DHT22;14871;52.702;5.230;2023-08-24T09:19:07;23.10;99.90
27413;DHT22;14871;52.702;5.230;2023-08-24T09:21:39;23.00;99.90
27413;DHT22;14871;52.702;5.230;2023-08-24T09:24:06;23.10;99.90
27413;DHT22;14871;52.702;5.230;2023-08-24T09:26:35;23.10;99.90
27413;DHT22;14871;52.702;5.230;2023-08-24T09:29:14;23.20;99.90
27413;DHT22;14871;52.702;5.230;2023-08-24T09:31:40;23.20;99.90
27413;DHT22;14871;52.702;5.230;2023-08-24T09:34:07;23.20;99.90
27413;DHT22;14871;52.702;5.230;2023-08-24T09:36:36;23.30;99.90
27413;DHT22;14871;52.702;5.230;2023-08-24T09:39:03;23.20;99.90
27413;DHT22;14871;52.702;5.230;2023-08-24T09:41:49;23.30;99.90
27413;DHT22;14871;52.702;5.230;2023-08-24T09:44:14;23.30;99.90
27413;DHT22;14871;52.702;5.230;2023-08-24T09:46:42;23.20;99.90
27413;DHT22;14871;52.702;5.230;2023-08-24T09:49:10;23.20;99.90
27413;DHT22;14871;52.702;5.230;2023-08-24T09:51:38;23.30;99.90
27413;DHT22;14871;52.702;5.230;2023-08-24T09:54:05;23.30;99.90
27413;DHT22;14871;52.702;5.230;2023-08-24T09:56:38;23.10;99.90
27413;DHT22;14871;52.702;5.230;2023-08-24T09:59:17;23.10;99.90
27413;DHT22;14871;52.702;5.230;2023-08-24T10:01:49;23.20;99.90
27413;DHT22;14871;52.702;5.230;2023-08-24T10:04:21;23.30;99.90
27413;DHT22;14871;52.702;5.230;2023-08-24T10:06:50;23.30;99.90
27413;DHT22;14871;52.702;5.230;2023-08-24T10:09:23;23.30;99.90
27413;DHT22;14871;52.702;5.230;2023-08-24T10:12:00;23.40;99.90
27413;DHT22;14871;52.702;5.230;2023-08-24T10:14:31;23.30;99.90
27413;DHT22;14871;52.702;5.230;2023-08-24T10:16:57;23.30;99.90
27413;DHT22;14871;52.702;5.230;2023-08-24T10:19:24;23.30;99.90
27413;DHT22;14871;52.702;5.230;2023-08-24T10:21:53;23.30;99.90
27413;DHT22;14871;52.702;5.230;2023-08-24T10:24:19;23.30;99.90
27413;DHT22;14871;52.702;5.230;2023-08-24T10:26:46;23.30;99.90
27413;DHT22;14871;52.702;5.230;2023-08-24T10:29:13;23.40;99.90
27413;DHT22;14871;52.702;5.230;2023-08-24T10:31:40;23.40;99.90
27413;DHT22;14871;52.702;5.230;2023-08-24T10:34:07;23.40;99.90
27413;DHT22;14871;52.702;5.230;2023-08-24T10:36:33;23.40;99.90
27413;DHT22;14871;52.702;5.230;2023-08-24T10:39:03;23.40;99.90
27413;DHT22;14871;52.702;5.230;2023-08-24T10:41:48;23.30;99.90
27413;DHT22;14871;52.702;5.230;2023-08-24T10:44:33;23.30;99.90
27413;DHT22;14871;52.702;5.230;2023-08-24T10:47:15;23.30;99.90
27413;DHT22;14871;52.702;5.230;2023-08-24T10:49:45;23.30;99.90
27413;DHT22;14871;52.702;5.230;2023-08-24T10:54:54;23.30;99.90
27413;DHT22;14871;52.702;5.230;2023-08-24T10:57:30;23.30;99.90
27413;DHT22;14871;52.702;5.230;2023-08-24T11:00:06;23.40;99.90
27413;DHT22;14871;52.702;5.230;2023-08-24T11:02:49;23.40;99.90
27413;DHT22;14871;52.702;5.230;2023-08-24T11:05:29;23.40;99.90
27413;DHT22;14871;52.702;5.230;2023-08-24T11:10:31;23.30;99.90
27413;DHT22;14871;52.702;5.230;2023-08-24T11:13:16;23.30;99.90
27413;DHT22;14871;52.702;5.230;2023-08-24T11:15:46;23.30;99.90
27413;DHT22;14871;52.702;5.230;2023-08-24T11:20:45;23.10;99.90
27413;DHT22;14871;52.702;5.230;2023-08-24T11:23:12;22.90;99.90
27413;DHT22;14871;52.702;5.230;2023-08-24T11:25:38;22.80;99.90
27413;DHT22;14871;52.702;5.230;2023-08-24T11:28:04;22.60;99.90
27413;DHT22;14871;52.702;5.230;2023-08-24T11:30:34;22.60;99.90
27413;DHT22;14871;52.702;5.230;2023-08-24T11:33:01;22.50;99.90
27413;DHT22;14871;52.702;5.230;2023-08-24T11:35:27;22.60;99.90
27413;DHT22;14871;52.702;5.230;2023-08-24T11:37:53;22.60;99.90
27413;DHT22;14871;52.702;5.230;2023-08-24T11:40:19;22.60;99.90
27413;DHT22;14871;52.702;5.230;2023-08-24T11:42:54;22.50;99.90
27413;DHT22;14871;52.702;5.230;2023-08-24T11:45:20;22.50;99.90
27413;DHT22;14871;52.702;5.230;2023-08-24T11:47:47;22.60;99.90
27413;DHT22;14871;52.702;5.230;2023-08-24T11:50:12;22.70;99.90
27413;DHT22;14871;52.702;5.230;2023-08-24T11:52:42;22.80;99.90
27413;DHT22;14871;52.702;5.230;2023-08-24T11:55:08;22.90;99.90
27413;DHT22;14871;52.702;5.230;2023-08-24T11:57:38;22.90;99.90
27413;DHT22;14871;52.702;5.230;2023-08-24T12:00:04;23.00;99.90
27413;DHT22;14871;52.702;5.230;2023-08-24T12:02:31;22.90;99.90
27413;DHT22;14871;52.702;5.230;2023-08-24T12:04:58;23.00;99.90
27413;DHT22;14871;52.702;5.230;2023-08-24T12:07:23;23.00;99.90
27413;DHT22;14871;52.702;5.230;2023-08-24T12:09:49;23.00;99.90
27413;DHT22;14871;52.702;5.230;2023-08-24T12:12:18;23.00;99.90
27413;DHT22;14871;52.702;5.230;2023-08-24T12:14:49;23.00;99.90
27413;DHT22;14871;52.702;5.230;2023-08-24T12:17:17;23.10;99.90
27413;DHT22;14871;52.702;5.230;2023-08-24T12:19:58;23.20;99.90
27413;DHT22;14871;52.702;5.230;2023-08-24T12:22:24;23.30;99.90
27413;DHT22;14871;52.702;5.230;2023-08-24T12:24:50;23.30;99.90
27413;DHT22;14871;52.702;5.230;2023-08-24T12:27:19;23.40;99.90
27413;DHT22;14871;52.702;5.230;2023-08-24T12:29:46;23.50;99.90
27413;DHT22;14871;52.702;5.230;2023-08-24T12:32:12;23.60;99.90
27413;DHT22;14871;52.702;5.230;2023-08-24T12:34:38;23.70;99.90
27413;DHT22;14871;52.702;5.230;2023-08-24T12:37:04;23.80;99.90
27413;DHT22;14871;52.702;5.230;2023-08-24T12:39:35;23.90;99.90
27413;DHT22;14871;52.702;5.230;2023-08-24T12:42:01;24.10;99.90
27413;DHT22;14871;52.702;5.230;2023-08-24T12:44:27;24.10;99.90
27413;DHT22;14871;52.702;5.230;2023-08-24T12:46:52;24.20;99.90
27413;DHT22;14871;52.702;5.230;2023-08-24T12:49:18;24.20;99.90
27413;DHT22;14871;52.702;5.230;2023-08-24T12:51:43;24.20;99.90
27413;DHT22;14871;52.702;5.230;2023-08-24T12:54:09;24.20;99.90
27413;DHT22;14871;52.702;5.230;2023-08-24T12:56:35;24.30;99.90
27413;DHT22;14871;52.702;5.230;2023-08-24T12:59:01;24.50;99.90
27413;DHT22;14871;52.702;5.230;2023-08-24T13:01:26;24.60;99.90
27413;DHT22;14871;52.702;5.230;2023-08-24T13:03:52;24.70;99.90
27413;DHT22;14871;52.702;5.230;2023-08-24T13:06:18;24.80;99.90
27413;DHT22;14871;52.702;5.230;2023-08-24T13:08:43;24.80;99.90
27413;DHT22;14871;52.702;5.230;2023-08-24T13:11:09;24.80;99.90
27413;DHT22;14871;52.702;5.230;2023-08-24T13:13:36;24.90;99.90
27413;DHT22;14871;52.702;5.230;2023-08-24T13:16:02;25.00;99.90
27413;DHT22;14871;52.702;5.230;2023-08-24T13:18:28;24.90;99.90
27413;DHT22;14871;52.702;5.230;2023-08-24T13:20:53;25.00;99.90
27413;DHT22;14871;52.702;5.230;2023-08-24T13:23:19;25.00;99.90
27413;DHT22;14871;52.702;5.230;2023-08-24T13:25:44;25.00;99.90
27413;DHT22;14871;52.702;5.230;2023-08-24T13:28:10;24.90;99.90
27413;DHT22;14871;52.702;5.230;2023-08-24T13:30:36;24.90;99.90
27413;DHT22;14871;52.702;5.230;2023-08-24T13:33:01;24.90;99.90
27413;DHT22;14871;52.702;5.230;2023-08-24T13:35:27;24.90;99.90
27413;DHT22;14871;52.702;5.230;2023-08-24T13:37:52;24.70;99.90
27413;DHT22;14871;52.702;5.230;2023-08-24T13:40:21;24.60;99.90
27413;DHT22;14871;52.702;5.230;2023-08-24T13:42:47;24.60;99.90
27413;DHT22;14871;52.702;5.230;2023-08-24T13:45:12;24.50;99.90
27413;DHT22;14871;52.702;5.230;2023-08-24T13:47:38;24.40;99.90
27413;DHT22;14871;52.702;5.230;2023-08-24T13:50:04;24.30;99.90
27413;DHT22;14871;52.702;5.230;2023-08-24T13:52:29;24.30;99.90
27413;DHT22;14871;52.702;5.230;2023-08-24T13:54:55;24.30;99.90
27413;DHT22;14871;52.702;5.230;2023-08-24T13:57:20;24.30;99.90
27413;DHT22;14871;52.702;5.230;2023-08-24T13:59:46;24.20;99.90
27413;DHT22;14871;52.702;5.230;2023-08-24T14:02:12;24.20;99.90
27413;DHT22;14871;52.702;5.230;2023-08-24T14:04:38;24.20;99.90
27413;DHT22;14871;52.702;5.230;2023-08-24T14:07:04;24.20;99.90
27413;DHT22;14871;52.702;5.230;2023-08-24T14:09:29;24.10;99.90
27413;DHT22;14871;52.702;5.230;2023-08-24T14:11:56;24.00;99.90
27413;DHT22;14871;52.702;5.230;2023-08-24T14:14:22;23.80;99.90
27413;DHT22;14871;52.702;5.230;2023-08-24T14:16:53;23.80;99.90
27413;DHT22;14871;52.702;5.230;2023-08-24T14:19:20;23.70;99.90
27413;DHT22;14871;52.702;5.230;2023-08-24T14:21:45;23.70;99.90
27413;DHT22;14871;52.702;5.230;2023-08-24T14:24:11;23.80;99.90
27413;DHT22;14871;52.702;5.230;2023-08-24T14:26:38;23.80;99.90
27413;DHT22;14871;52.702;5.230;2023-08-24T14:29:04;23.80;99.90
27413;DHT22;14871;52.702;5.230;2023-08-24T14:31:30;23.80;99.90
27413;DHT22;14871;52.702;5.230;2023-08-24T14:33:56;23.90;99.90
27413;DHT22;14871;52.702;5.230;2023-08-24T14:36:23;24.00;99.90
27413;DHT22;14871;52.702;5.230;2023-08-24T14:38:50;24.00;99.90
27413;DHT22;14871;52.702;5.230;2023-08-24T14:41:17;24.00;99.90
27413;DHT22;14871;52.702;5.230;2023-08-24T14:43:43;24.10;99.90
27413;DHT22;14871;52.702;5.230;2023-08-24T14:46:09;24.00;99.90
27413;DHT22;14871;52.702;5.230;2023-08-24T14:48:34;24.00;99.90
27413;DHT22;14871;52.702;5.230;2023-08-24T14:51:00;24.10;99.90
27413;DHT22;14871;52.702;5.230;2023-08-24T14:53:26;24.10;99.90
27413;DHT22;14871;52.702;5.230;2023-08-24T14:55:53;24.10;99.90
27413;DHT22;14871;52.702;5.230;2023-08-24T14:58:21;24.00;99.90
27413;DHT22;14871;52.702;5.230;2023-08-24T15:00:47;24.00;99.90
27413;DHT22;14871;52.702;5.230;2023-08-24T15:03:13;24.00;99.90
27413;DHT22;14871;52.702;5.230;2023-08-24T15:05:43;24.10;99.90
27413;DHT22;14871;52.702;5.230;2023-08-24T15:08:09;24.10;99.90
27413;DHT22;14871;52.702;5.230;2023-08-24T15:10:35;24.20;99.90
27413;DHT22;14871;52.702;5.230;2023-08-24T15:13:00;24.20;99.90
27413;DHT22;14871;52.702;5.230;2023-08-24T15:15:26;24.20;99.90
27413;DHT22;14871;52.702;5.230;2023-08-24T15:17:51;24.20;99.90
27413;DHT22;14871;52.702;5.230;2023-08-24T15:20:17;24.20;99.90
27413;DHT22;14871;52.702;5.230;2023-08-24T15:22:43;24.20;99.90
27413;DHT22;14871;52.702;5.230;2023-08-24T15:25:09;24.30;99.90
27413;DHT22;14871;52.702;5.230;2023-08-24T15:27:36;24.30;99.90
27413;DHT22;14871;52.702;5.230;2023-08-24T15:30:03;24.30;99.90
27413;DHT22;14871;52.702;5.230;2023-08-24T15:32:30;24.30;99.90
27413;DHT22;14871;52.702;5.230;2023-08-24T15:34:57;24.20;99.90
27413;DHT22;14871;52.702;5.230;2023-08-24T15:37:23;24.20;99.90